sensor_id;sensor_type;location;lat;lon;timestamp;P1;durP1;ratioP1;P2;durP2;ratioP2
140;SDS011;65;48.778;9.160;2023-06-22T00:02:03;13.10;;;7.95;;
140;SDS011;65;48.778;9.160;2023-06-22T00:04:49;14.63;;;8.20;;
140;SDS011;65;48.778;9.160;2023-06-22T00:07:35;11.82;;;8.38;;
140;SDS011;65;48.778;9.160;2023-06-22T00:10:20;13.95;;;8.32;;
140;SDS011;65;48.778;9.160;2023-06-22T00:13:07;12.70;;;7.57;;
140;SDS011;65;48.778;9.160;2023-06-22T00:15:54;10.68;;;7.60;;
140;SDS011;65;48.778;9.160;2023-06-22T00:18:39;13.07;;;8.43;;
140;SDS011;65;48.778;9.160;2023-06-22T00:21:32;13.68;;;9.02;;
140;SDS011;65;48.778;9.160;2023-06-22T00:24:19;11.98;;;8.55;;
140;SDS011;65;48.778;9.160;2023-06-22T00:27:05;13.32;;;9.57;;
140;SDS011;65;48.778;9.160;2023-06-22T00:29:51;12.25;;;8.60;;
140;SDS011;65;48.778;9.160;2023-06-22T00:32:37;13.13;;;8.77;;
140;SDS011;65;48.778;9.160;2023-06-22T00:35:22;13.20;;;9.02;;
140;SDS011;65;48.778;9.160;2023-06-22T00:38:08;12.77;;;8.45;;
140;SDS011;65;48.778;9.160;2023-06-22T00:40:54;13.30;;;9.40;;
140;SDS011;65;48.778;9.160;2023-06-22T00:43:40;15.27;;;8.80;;
140;SDS011;65;48.778;9.160;2023-06-22T00:46:27;16.35;;;9.27;;
140;SDS011;65;48.778;9.160;2023-06-22T00:49:13;16.40;;;9.27;;
140;SDS011;65;48.778;9.160;2023-06-22T00:51:59;15.40;;;8.90;;
140;SDS011;65;48.778;9.160;2023-06-22T00:54:45;15.32;;;8.88;;
140;SDS011;65;48.778;9.160;2023-06-22T00:57:31;14.88;;;9.05;;
140;SDS011;65;48.778;9.160;2023-06-22T01:00:17;16.35;;;8.93;;
140;SDS011;65;48.778;9.160;2023-06-22T01:03:05;12.65;;;9.13;;
140;SDS011;65;48.778;9.160;2023-06-22T01:05:55;14.20;;;9.27;;
140;SDS011;65;48.778;9.160;2023-06-22T01:09:01;13.82;;;9.20;;
140;SDS011;65;48.778;9.160;2023-06-22T01:11:54;11.68;;;8.35;;
140;SDS011;65;48.778;9.160;2023-06-22T01:14:55;13.35;;;8.63;;
140;SDS011;65;48.778;9.160;2023-06-22T01:17:47;12.13;;;7.72;;
140;SDS011;65;48.778;9.160;2023-06-22T01:20:34;11.65;;;8.07;;
140;SDS011;65;48.778;9.160;2023-06-22T01:26:18;12.70;;;8.88;;
140;SDS011;65;48.778;9.160;2023-06-22T01:29:13;14.50;;;8.23;;
140;SDS011;65;48.778;9.160;2023-06-22T01:32:00;17.08;;;8.93;;
140;SDS011;65;48.778;9.160;2023-06-22T01:34:49;12.00;;;8.48;;
140;SDS011;65;48.778;9.160;2023-06-22T01:37:36;11.63;;;8.20;;
140;SDS011;65;48.778;9.160;2023-06-22T01:40:23;15.38;;;8.60;;
140;SDS011;65;48.778;9.160;2023-06-22T01:43:10;15.38;;;8.57;;
140;SDS011;65;48.778;9.160;2023-06-22T01:45:56;14.43;;;8.90;;
140;SDS011;65;48.778;9.160;2023-06-22T01:48:45;12.52;;;8.43;;
140;SDS011;65;48.778;9.160;2023-06-22T01:51:32;12.63;;;8.52;;
140;SDS011;65;48.778;9.160;2023-06-22T01:54:18;18.10;;;8.43;;
140;SDS011;65;48.778;9.160;2023-06-22T01:57:04;13.63;;;8.75;;
140;SDS011;65;48.778;9.160;2023-06-22T02:00:03;14.15;;;9.48;;
140;SDS011;65;48.778;9.160;2023-06-22T02:05:58;17.63;;;9.68;;
140;SDS011;65;48.778;9.160;2023-06-22T02:08:51;13.60;;;9.45;;
140;SDS011;65;48.778;9.160;2023-06-22T02:11:42;13.13;;;9.43;;
140;SDS011;65;48.778;9.160;2023-06-22T02:14:31;13.60;;;9.10;;
140;SDS011;65;48.778;9.160;2023-06-22T02:17:17;14.88;;;10.30;;
140;SDS011;65;48.778;9.160;2023-06-22T02:20:03;14.68;;;9.30;;
140;SDS011;65;48.778;9.160;2023-06-22T02:22:54;14.20;;;9.45;;
140;SDS011;65;48.778;9.160;2023-06-22T02:25:39;16.58;;;10.50;;
140;SDS011;65;48.778;9.160;2023-06-22T02:28:25;12.52;;;9.35;;
140;SDS011;65;48.778;9.160;2023-06-22T02:31:11;13.80;;;9.50;;
140;SDS011;65;48.778;9.160;2023-06-22T02:34:00;15.70;;;9.18;;
140;SDS011;65;48.778;9.160;2023-06-22T02:36:47;14.25;;;9.75;;
140;SDS011;65;48.778;9.160;2023-06-22T02:39:40;14.45;;;10.15;;
140;SDS011;65;48.778;9.160;2023-06-22T02:42:26;15.95;;;10.30;;
140;SDS011;65;48.778;9.160;2023-06-22T02:45:12;13.60;;;9.68;;
140;SDS011;65;48.778;9.160;2023-06-22T02:47:58;14.68;;;10.20;;
140;SDS011;65;48.778;9.160;2023-06-22T02:50:43;16.88;;;11.45;;
140;SDS011;65;48.778;9.160;2023-06-22T02:53:29;17.73;;;10.23;;
140;SDS011;65;48.778;9.160;2023-06-22T02:56:15;13.02;;;10.10;;
140;SDS011;65;48.778;9.160;2023-06-22T02:59:02;16.27;;;9.77;;
140;SDS011;65;48.778;9.160;2023-06-22T03:01:51;11.88;;;8.80;;
140;SDS011;65;48.778;9.160;2023-06-22T03:04:37;13.30;;;9.68;;
140;SDS011;65;48.778;9.160;2023-06-22T03:07:23;15.25;;;10.63;;
140;SDS011;65;48.778;9.160;2023-06-22T03:10:09;16.55;;;10.50;;
140;SDS011;65;48.778;9.160;2023-06-22T03:12:56;14.77;;;9.82;;
140;SDS011;65;48.778;9.160;2023-06-22T03:15:42;16.90;;;11.20;;
140;SDS011;65;48.778;9.160;2023-06-22T03:18:28;16.45;;;10.07;;
140;SDS011;65;48.778;9.160;2023-06-22T03:21:14;13.95;;;9.38;;
140;SDS011;65;48.778;9.160;2023-06-22T03:24:00;13.27;;;9.57;;
140;SDS011;65;48.778;9.160;2023-06-22T03:26:46;14.48;;;9.30;;
140;SDS011;65;48.778;9.160;2023-06-22T03:29:32;14.77;;;10.07;;
140;SDS011;65;48.778;9.160;2023-06-22T03:32:18;14.57;;;10.32;;
140;SDS011;65;48.778;9.160;2023-06-22T03:35:04;13.65;;;9.13;;
140;SDS011;65;48.778;9.160;2023-06-22T03:37:51;14.15;;;9.10;;
140;SDS011;65;48.778;9.160;2023-06-22T03:40:37;10.90;;;8.90;;
140;SDS011;65;48.778;9.160;2023-06-22T03:43:23;13.50;;;9.38;;
140;SDS011;65;48.778;9.160;2023-06-22T03:46:09;13.07;;;9.63;;
140;SDS011;65;48.778;9.160;2023-06-22T03:48:55;15.27;;;10.02;;
140;SDS011;65;48.778;9.160;2023-06-22T03:51:41;14.10;;;9.73;;
140;SDS011;65;48.778;9.160;2023-06-22T03:54:26;13.50;;;9.45;;
140;SDS011;65;48.778;9.160;2023-06-22T03:57:13;14.45;;;9.20;;
140;SDS011;65;48.778;9.160;2023-06-22T03:59:59;15.18;;;9.52;;
140;SDS011;65;48.778;9.160;2023-06-22T04:02:45;14.10;;;10.02;;
140;SDS011;65;48.778;9.160;2023-06-22T04:05:31;13.48;;;9.13;;
140;SDS011;65;48.778;9.160;2023-06-22T04:08:17;15.93;;;9.00;;
140;SDS011;65;48.778;9.160;2023-06-22T04:11:03;11.57;;;8.93;;
140;SDS011;65;48.778;9.160;2023-06-22T04:13:50;13.63;;;9.50;;
140;SDS011;65;48.778;9.160;2023-06-22T04:16:36;14.18;;;9.30;;
140;SDS011;65;48.778;9.160;2023-06-22T04:19:22;15.50;;;9.35;;
140;SDS011;65;48.778;9.160;2023-06-22T04:22:08;13.02;;;8.80;;
140;SDS011;65;48.778;9.160;2023-06-22T04:24:55;12.73;;;9.13;;
140;SDS011;65;48.778;9.160;2023-06-22T04:27:41;14.43;;;9.38;;
140;SDS011;65;48.778;9.160;2023-06-22T04:33:38;17.25;;;10.10;;
140;SDS011;65;48.778;9.160;2023-06-22T04:36:25;18.35;;;10.05;;
140;SDS011;65;48.778;9.160;2023-06-22T04:39:16;13.73;;;9.93;;
140;SDS011;65;48.778;9.160;2023-06-22T04:42:01;14.25;;;9.57;;
140;SDS011;65;48.778;9.160;2023-06-22T04:44:47;15.50;;;9.48;;
140;SDS011;65;48.778;9.160;2023-06-22T04:47:33;14.13;;;9.85;;
140;SDS011;65;48.778;9.160;2023-06-22T04:50:19;19.30;;;10.07;;
140;SDS011;65;48.778;9.160;2023-06-22T04:53:07;14.25;;;10.27;;
140;SDS011;65;48.778;9.160;2023-06-22T04:55:55;12.73;;;9.57;;
140;SDS011;65;48.778;9.160;2023-06-22T04:58:41;16.73;;;9.48;;
140;SDS011;65;48.778;9.160;2023-06-22T05:01:26;15.77;;;9.57;;
140;SDS011;65;48.778;9.160;2023-06-22T05:04:12;15.35;;;9.30;;
140;SDS011;65;48.778;9.160;2023-06-22T05:06:59;17.33;;;8.65;;
140;SDS011;65;48.778;9.160;2023-06-22T05:09:48;12.20;;;8.43;;
140;SDS011;65;48.778;9.160;2023-06-22T05:12:34;12.88;;;8.80;;
140;SDS011;65;48.778;9.160;2023-06-22T05:15:20;15.80;;;8.48;;
140;SDS011;65;48.778;9.160;2023-06-22T05:18:08;15.15;;;8.20;;
140;SDS011;65;48.778;9.160;2023-06-22T05:20:57;15.48;;;8.70;;
140;SDS011;65;48.778;9.160;2023-06-22T05:23:44;13.68;;;8.35;;
140;SDS011;65;48.778;9.160;2023-06-22T05:26:30;13.73;;;9.10;;
140;SDS011;65;48.778;9.160;2023-06-22T05:29:17;12.00;;;8.25;;
140;SDS011;65;48.778;9.160;2023-06-22T05:32:03;14.07;;;8.18;;
140;SDS011;65;48.778;9.160;2023-06-22T05:34:49;14.30;;;8.30;;
140;SDS011;65;48.778;9.160;2023-06-22T05:37:35;10.70;;;7.10;;
140;SDS011;65;48.778;9.160;2023-06-22T05:40:21;15.82;;;8.23;;
140;SDS011;65;48.778;9.160;2023-06-22T05:43:07;11.88;;;8.25;;
140;SDS011;65;48.778;9.160;2023-06-22T05:45:53;12.48;;;8.40;;
140;SDS011;65;48.778;9.160;2023-06-22T05:48:39;14.00;;;8.85;;
140;SDS011;65;48.778;9.160;2023-06-22T05:51:25;13.07;;;8.25;;
140;SDS011;65;48.778;9.160;2023-06-22T05:54:10;11.05;;;7.45;;
140;SDS011;65;48.778;9.160;2023-06-22T05:56:58;14.68;;;8.30;;
140;SDS011;65;48.778;9.160;2023-06-22T05:59:44;11.82;;;7.95;;
140;SDS011;65;48.778;9.160;2023-06-22T06:02:30;15.85;;;7.60;;
140;SDS011;65;48.778;9.160;2023-06-22T06:05:16;14.60;;;7.95;;
140;SDS011;65;48.778;9.160;2023-06-22T06:08:02;11.63;;;8.13;;
140;SDS011;65;48.778;9.160;2023-06-22T06:10:50;13.32;;;8.10;;
140;SDS011;65;48.778;9.160;2023-06-22T06:13:38;10.80;;;7.10;;
140;SDS011;65;48.778;9.160;2023-06-22T06:16:24;10.75;;;6.28;;
140;SDS011;65;48.778;9.160;2023-06-22T06:19:10;13.10;;;7.63;;
140;SDS011;65;48.778;9.160;2023-06-22T06:21:55;11.45;;;7.22;;
140;SDS011;65;48.778;9.160;2023-06-22T06:24:41;10.32;;;7.20;;
140;SDS011;65;48.778;9.160;2023-06-22T06:27:27;9.70;;;6.90;;
140;SDS011;65;48.778;9.160;2023-06-22T06:30:15;14.48;;;7.15;;
140;SDS011;65;48.778;9.160;2023-06-22T06:33:02;14.32;;;7.03;;
140;SDS011;65;48.778;9.160;2023-06-22T06:35:54;16.70;;;7.03;;
140;SDS011;65;48.778;9.160;2023-06-22T06:38:41;13.05;;;7.15;;
140;SDS011;65;48.778;9.160;2023-06-22T06:41:27;15.95;;;7.15;;
140;SDS011;65;48.778;9.160;2023-06-22T06:44:18;9.02;;;6.40;;
140;SDS011;65;48.778;9.160;2023-06-22T06:47:04;12.20;;;6.85;;
140;SDS011;65;48.778;9.160;2023-06-22T06:49:50;11.70;;;6.38;;
140;SDS011;65;48.778;9.160;2023-06-22T06:52:36;13.90;;;6.30;;
140;SDS011;65;48.778;9.160;2023-06-22T06:55:22;12.50;;;6.80;;
140;SDS011;65;48.778;9.160;2023-06-22T06:58:10;10.77;;;5.72;;
140;SDS011;65;48.778;9.160;2023-06-22T07:00:58;11.07;;;5.78;;
140;SDS011;65;48.778;9.160;2023-06-22T07:03:44;17.40;;;11.18;;
140;SDS011;65;48.778;9.160;2023-06-22T07:06:30;13.50;;;10.55;;
140;SDS011;65;48.778;9.160;2023-06-22T07:09:17;14.00;;;6.18;;
140;SDS011;65;48.778;9.160;2023-06-22T07:12:04;10.93;;;6.07;;
140;SDS011;65;48.778;9.160;2023-06-22T07:14:51;11.63;;;5.97;;
140;SDS011;65;48.778;9.160;2023-06-22T07:17:38;9.45;;;5.93;;
140;SDS011;65;48.778;9.160;2023-06-22T07:20:26;13.20;;;6.82;;
140;SDS011;65;48.778;9.160;2023-06-22T07:23:12;11.63;;;6.05;;
140;SDS011;65;48.778;9.160;2023-06-22T07:25:58;15.23;;;6.30;;
140;SDS011;65;48.778;9.160;2023-06-22T07:28:47;12.43;;;5.80;;
140;SDS011;65;48.778;9.160;2023-06-22T07:31:33;13.70;;;5.68;;
140;SDS011;65;48.778;9.160;2023-06-22T07:34:19;9.63;;;5.90;;
140;SDS011;65;48.778;9.160;2023-06-22T07:37:05;13.55;;;6.18;;
140;SDS011;65;48.778;9.160;2023-06-22T07:39:51;11.60;;;6.13;;
140;SDS011;65;48.778;9.160;2023-06-22T07:42:39;15.98;;;6.22;;
140;SDS011;65;48.778;9.160;2023-06-22T07:45:24;9.68;;;5.55;;
140;SDS011;65;48.778;9.160;2023-06-22T07:48:10;12.88;;;6.35;;
140;SDS011;65;48.778;9.160;2023-06-22T07:50:56;12.23;;;5.50;;
140;SDS011;65;48.778;9.160;2023-06-22T07:53:42;10.98;;;5.70;;
140;SDS011;65;48.778;9.160;2023-06-22T07:56:29;9.90;;;6.28;;
140;SDS011;65;48.778;9.160;2023-06-22T07:59:15;10.95;;;5.57;;
140;SDS011;65;48.778;9.160;2023-06-22T08:02:01;9.02;;;5.75;;
140;SDS011;65;48.778;9.160;2023-06-22T08:04:48;14.20;;;6.10;;
140;SDS011;65;48.778;9.160;2023-06-22T08:07:38;11.65;;;5.63;;
140;SDS011;65;48.778;9.160;2023-06-22T08:10:24;11.05;;;5.60;;
140;SDS011;65;48.778;9.160;2023-06-22T08:13:11;16.17;;;5.80;;
140;SDS011;65;48.778;9.160;2023-06-22T08:15:57;11.02;;;6.00;;
140;SDS011;65;48.778;9.160;2023-06-22T08:18:43;11.68;;;5.40;;
140;SDS011;65;48.778;9.160;2023-06-22T08:21:29;12.55;;;5.38;;
140;SDS011;65;48.778;9.160;2023-06-22T08:24:15;10.05;;;5.15;;
140;SDS011;65;48.778;9.160;2023-06-22T08:27:00;12.65;;;5.43;;
140;SDS011;65;48.778;9.160;2023-06-22T08:29:46;10.45;;;5.47;;
140;SDS011;65;48.778;9.160;2023-06-22T08:32:42;15.30;;;5.90;;
140;SDS011;65;48.778;9.160;2023-06-22T08:35:28;10.43;;;5.63;;
140;SDS011;65;48.778;9.160;2023-06-22T08:38:14;12.00;;;5.38;;
140;SDS011;65;48.778;9.160;2023-06-22T08:41:00;14.82;;;5.88;;
140;SDS011;65;48.778;9.160;2023-06-22T08:43:46;11.60;;;5.60;;
140;SDS011;65;48.778;9.160;2023-06-22T08:46:32;10.50;;;5.30;;
140;SDS011;65;48.778;9.160;2023-06-22T08:49:18;15.18;;;6.18;;
140;SDS011;65;48.778;9.160;2023-06-22T08:52:04;14.30;;;5.95;;
140;SDS011;65;48.778;9.160;2023-06-22T08:54:51;11.75;;;5.63;;
140;SDS011;65;48.778;9.160;2023-06-22T08:57:36;14.10;;;5.90;;
140;SDS011;65;48.778;9.160;2023-06-22T09:00:24;12.75;;;5.10;;
140;SDS011;65;48.778;9.160;2023-06-22T09:03:10;14.18;;;5.32;;
140;SDS011;65;48.778;9.160;2023-06-22T09:05:56;14.40;;;6.35;;
140;SDS011;65;48.778;9.160;2023-06-22T09:08:42;13.30;;;5.35;;
140;SDS011;65;48.778;9.160;2023-06-22T09:11:28;21.48;;;6.28;;
140;SDS011;65;48.778;9.160;2023-06-22T09:14:14;15.93;;;6.10;;
140;SDS011;65;48.778;9.160;2023-06-22T09:17:01;16.23;;;5.82;;
140;SDS011;65;48.778;9.160;2023-06-22T09:19:47;14.68;;;5.68;;
140;SDS011;65;48.778;9.160;2023-06-22T09:22:34;26.30;;;6.50;;
140;SDS011;65;48.778;9.160;2023-06-22T09:25:19;15.35;;;5.50;;
140;SDS011;65;48.778;9.160;2023-06-22T09:28:05;19.02;;;5.30;;
140;SDS011;65;48.778;9.160;2023-06-22T09:30:51;17.92;;;5.45;;
140;SDS011;65;48.778;9.160;2023-06-22T09:33:44;15.13;;;5.88;;
140;SDS011;65;48.778;9.160;2023-06-22T09:36:30;14.07;;;5.57;;
140;SDS011;65;48.778;9.160;2023-06-22T09:39:17;11.75;;;5.25;;
140;SDS011;65;48.778;9.160;2023-06-22T09:42:04;19.73;;;6.20;;
140;SDS011;65;48.778;9.160;2023-06-22T09:44:51;12.60;;;5.25;;
140;SDS011;65;48.778;9.160;2023-06-22T09:47:37;15.77;;;5.68;;
140;SDS011;65;48.778;9.160;2023-06-22T09:50:24;15.43;;;6.10;;
140;SDS011;65;48.778;9.160;2023-06-22T09:53:10;17.63;;;5.97;;
140;SDS011;65;48.778;9.160;2023-06-22T09:55:56;15.32;;;6.13;;
140;SDS011;65;48.778;9.160;2023-06-22T09:58:43;16.38;;;5.65;;
140;SDS011;65;48.778;9.160;2023-06-22T10:01:29;18.05;;;6.05;;
140;SDS011;65;48.778;9.160;2023-06-22T10:04:15;16.70;;;5.82;;
140;SDS011;65;48.778;9.160;2023-06-22T10:07:01;17.10;;;5.88;;
140;SDS011;65;48.778;9.160;2023-06-22T10:09:47;18.58;;;6.25;;
140;SDS011;65;48.778;9.160;2023-06-22T10:12:33;14.05;;;5.18;;
140;SDS011;65;48.778;9.160;2023-06-22T10:15:19;16.10;;;5.95;;
140;SDS011;65;48.778;9.160;2023-06-22T10:18:06;16.95;;;6.30;;
140;SDS011;65;48.778;9.160;2023-06-22T10:20:52;15.18;;;6.03;;
140;SDS011;65;48.778;9.160;2023-06-22T10:23:38;15.50;;;5.78;;
140;SDS011;65;48.778;9.160;2023-06-22T10:26:23;16.63;;;5.82;;
140;SDS011;65;48.778;9.160;2023-06-22T10:29:09;21.58;;;6.68;;
140;SDS011;65;48.778;9.160;2023-06-22T10:31:55;13.43;;;5.60;;
140;SDS011;65;48.778;9.160;2023-06-22T10:34:41;14.68;;;6.03;;
140;SDS011;65;48.778;9.160;2023-06-22T10:37:27;19.52;;;6.57;;
140;SDS011;65;48.778;9.160;2023-06-22T10:40:13;15.48;;;5.82;;
140;SDS011;65;48.778;9.160;2023-06-22T10:43:00;18.23;;;5.68;;
140;SDS011;65;48.778;9.160;2023-06-22T10:45:46;16.83;;;6.38;;
140;SDS011;65;48.778;9.160;2023-06-22T10:48:32;15.95;;;5.97;;
140;SDS011;65;48.778;9.160;2023-06-22T10:51:18;15.18;;;5.95;;
140;SDS011;65;48.778;9.160;2023-06-22T10:54:12;13.68;;;5.97;;
140;SDS011;65;48.778;9.160;2023-06-22T10:56:59;17.98;;;6.32;;
140;SDS011;65;48.778;9.160;2023-06-22T10:59:45;16.20;;;5.95;;
140;SDS011;65;48.778;9.160;2023-06-22T11:02:31;17.35;;;6.13;;
140;SDS011;65;48.778;9.160;2023-06-22T11:05:17;15.75;;;5.90;;
140;SDS011;65;48.778;9.160;2023-06-22T11:08:03;21.60;;;6.47;;
140;SDS011;65;48.778;9.160;2023-06-22T11:10:50;18.85;;;6.35;;
140;SDS011;65;48.778;9.160;2023-06-22T11:13:36;17.48;;;6.18;;
140;SDS011;65;48.778;9.160;2023-06-22T11:16:23;17.00;;;6.20;;
140;SDS011;65;48.778;9.160;2023-06-22T11:19:09;13.68;;;6.60;;
140;SDS011;65;48.778;9.160;2023-06-22T11:21:55;17.58;;;6.68;;
140;SDS011;65;48.778;9.160;2023-06-22T11:24:40;15.40;;;6.38;;
140;SDS011;65;48.778;9.160;2023-06-22T11:27:26;14.88;;;6.10;;
140;SDS011;65;48.778;9.160;2023-06-22T11:30:13;20.70;;;6.07;;
140;SDS011;65;48.778;9.160;2023-06-22T11:32:59;15.10;;;6.30;;
140;SDS011;65;48.778;9.160;2023-06-22T11:35:45;20.08;;;6.53;;
140;SDS011;65;48.778;9.160;2023-06-22T11:38:31;20.20;;;6.68;;
140;SDS011;65;48.778;9.160;2023-06-22T11:41:17;16.05;;;6.32;;
140;SDS011;65;48.778;9.160;2023-06-22T11:44:03;22.92;;;6.75;;
140;SDS011;65;48.778;9.160;2023-06-22T11:46:50;13.57;;;6.20;;
140;SDS011;65;48.778;9.160;2023-06-22T11:49:36;20.92;;;6.80;;
140;SDS011;65;48.778;9.160;2023-06-22T11:52:22;17.42;;;6.75;;
140;SDS011;65;48.778;9.160;2023-06-22T11:55:07;14.38;;;6.18;;
140;SDS011;65;48.778;9.160;2023-06-22T11:57:54;15.82;;;6.13;;
140;SDS011;65;48.778;9.160;2023-06-22T12:00:41;18.35;;;6.38;;
140;SDS011;65;48.778;9.160;2023-06-22T12:03:27;14.63;;;6.00;;
140;SDS011;65;48.778;9.160;2023-06-22T12:06:14;16.77;;;6.55;;
140;SDS011;65;48.778;9.160;2023-06-22T12:09:00;19.17;;;6.60;;
140;SDS011;65;48.778;9.160;2023-06-22T12:11:46;20.25;;;6.40;;
140;SDS011;65;48.778;9.160;2023-06-22T12:14:31;16.05;;;6.10;;
140;SDS011;65;48.778;9.160;2023-06-22T12:17:17;19.67;;;6.93;;
140;SDS011;65;48.778;9.160;2023-06-22T12:20:04;18.90;;;6.70;;
140;SDS011;65;48.778;9.160;2023-06-22T12:22:51;12.23;;;6.22;;
140;SDS011;65;48.778;9.160;2023-06-22T12:25:38;15.07;;;6.47;;
140;SDS011;65;48.778;9.160;2023-06-22T12:28:24;18.90;;;6.80;;
140;SDS011;65;48.778;9.160;2023-06-22T12:31:10;26.98;;;7.50;;
140;SDS011;65;48.778;9.160;2023-06-22T12:33:56;20.05;;;6.88;;
140;SDS011;65;48.778;9.160;2023-06-22T12:36:42;24.63;;;6.80;;
140;SDS011;65;48.778;9.160;2023-06-22T12:39:28;23.73;;;6.82;;
140;SDS011;65;48.778;9.160;2023-06-22T12:42:14;15.45;;;6.80;;
140;SDS011;65;48.778;9.160;2023-06-22T12:45:01;24.35;;;7.50;;
140;SDS011;65;48.778;9.160;2023-06-22T12:47:47;17.00;;;6.53;;
140;SDS011;65;48.778;9.160;2023-06-22T12:50:35;16.42;;;6.50;;
140;SDS011;65;48.778;9.160;2023-06-22T12:53:21;16.88;;;6.35;;
140;SDS011;65;48.778;9.160;2023-06-22T12:56:08;30.90;;;7.35;;
140;SDS011;65;48.778;9.160;2023-06-22T12:58:54;20.25;;;6.72;;
140;SDS011;65;48.778;9.160;2023-06-22T13:01:40;21.95;;;7.32;;
140;SDS011;65;48.778;9.160;2023-06-22T13:04:26;19.33;;;6.78;;
140;SDS011;65;48.778;9.160;2023-06-22T13:07:12;16.58;;;6.82;;
140;SDS011;65;48.778;9.160;2023-06-22T13:10:01;18.38;;;6.80;;
140;SDS011;65;48.778;9.160;2023-06-22T13:12:47;19.98;;;6.72;;
140;SDS011;65;48.778;9.160;2023-06-22T13:15:33;21.77;;;7.43;;
140;SDS011;65;48.778;9.160;2023-06-22T13:18:19;17.77;;;6.50;;
140;SDS011;65;48.778;9.160;2023-06-22T13:21:05;13.80;;;6.57;;
140;SDS011;65;48.778;9.160;2023-06-22T13:23:51;14.35;;;6.18;;
140;SDS011;65;48.778;9.160;2023-06-22T13:26:37;15.25;;;6.57;;
140;SDS011;65;48.778;9.160;2023-06-22T13:29:23;18.42;;;6.45;;
140;SDS011;65;48.778;9.160;2023-06-22T13:32:09;18.05;;;7.32;;
140;SDS011;65;48.778;9.160;2023-06-22T13:34:54;20.23;;;7.18;;
140;SDS011;65;48.778;9.160;2023-06-22T13:37:40;17.88;;;6.70;;
140;SDS011;65;48.778;9.160;2023-06-22T13:40:26;14.65;;;6.25;;
140;SDS011;65;48.778;9.160;2023-06-22T13:43:12;14.02;;;6.70;;
140;SDS011;65;48.778;9.160;2023-06-22T13:45:58;18.45;;;6.68;;
140;SDS011;65;48.778;9.160;2023-06-22T13:48:44;17.88;;;6.68;;
140;SDS011;65;48.778;9.160;2023-06-22T13:51:30;17.02;;;6.97;;
140;SDS011;65;48.778;9.160;2023-06-22T13:54:16;19.33;;;6.60;;
140;SDS011;65;48.778;9.160;2023-06-22T13:57:02;17.92;;;7.40;;
140;SDS011;65;48.778;9.160;2023-06-22T13:59:48;17.92;;;6.60;;
140;SDS011;65;48.778;9.160;2023-06-22T14:02:33;15.80;;;7.20;;
140;SDS011;65;48.778;9.160;2023-06-22T14:05:19;15.77;;;7.20;;
140;SDS011;65;48.778;9.160;2023-06-22T14:08:05;16.05;;;7.10;;
140;SDS011;65;48.778;9.160;2023-06-22T14:10:51;13.95;;;6.55;;
140;SDS011;65;48.778;9.160;2023-06-22T14:13:39;16.08;;;7.00;;
140;SDS011;65;48.778;9.160;2023-06-22T14:16:27;17.65;;;7.10;;
140;SDS011;65;48.778;9.160;2023-06-22T14:19:13;23.65;;;7.25;;
140;SDS011;65;48.778;9.160;2023-06-22T14:21:59;15.85;;;6.95;;
140;SDS011;65;48.778;9.160;2023-06-22T14:24:45;21.80;;;6.55;;
140;SDS011;65;48.778;9.160;2023-06-22T14:27:31;18.80;;;6.55;;
140;SDS011;65;48.778;9.160;2023-06-22T14:30:17;21.65;;;6.50;;
140;SDS011;65;48.778;9.160;2023-06-22T14:33:03;19.90;;;5.93;;
140;SDS011;65;48.778;9.160;2023-06-22T14:35:49;19.42;;;6.03;;
140;SDS011;65;48.778;9.160;2023-06-22T14:38:35;15.35;;;5.80;;
140;SDS011;65;48.778;9.160;2023-06-22T14:41:21;14.32;;;5.43;;
140;SDS011;65;48.778;9.160;2023-06-22T14:44:07;18.20;;;5.90;;
140;SDS011;65;48.778;9.160;2023-06-22T14:46:53;23.60;;;6.20;;
140;SDS011;65;48.778;9.160;2023-06-22T14:49:39;17.73;;;5.50;;
140;SDS011;65;48.778;9.160;2023-06-22T14:52:26;23.42;;;6.40;;
140;SDS011;65;48.778;9.160;2023-06-22T14:55:12;18.58;;;5.72;;
140;SDS011;65;48.778;9.160;2023-06-22T14:57:58;17.95;;;5.43;;
140;SDS011;65;48.778;9.160;2023-06-22T15:00:44;14.23;;;4.95;;
140;SDS011;65;48.778;9.160;2023-06-22T15:03:31;20.98;;;5.18;;
140;SDS011;65;48.778;9.160;2023-06-22T15:06:17;15.63;;;4.13;;
140;SDS011;65;48.778;9.160;2023-06-22T15:09:03;16.13;;;4.05;;
140;SDS011;65;48.778;9.160;2023-06-22T15:11:49;23.90;;;5.20;;
140;SDS011;65;48.778;9.160;2023-06-22T15:14:35;18.27;;;4.13;;
140;SDS011;65;48.778;9.160;2023-06-22T15:17:21;19.25;;;4.45;;
140;SDS011;65;48.778;9.160;2023-06-22T15:20:07;21.25;;;4.55;;
140;SDS011;65;48.778;9.160;2023-06-22T15:22:53;21.75;;;4.55;;
140;SDS011;65;48.778;9.160;2023-06-22T15:25:39;19.13;;;4.55;;
140;SDS011;65;48.778;9.160;2023-06-22T15:28:25;15.75;;;5.07;;
140;SDS011;65;48.778;9.160;2023-06-22T15:31:11;12.70;;;4.10;;
140;SDS011;65;48.778;9.160;2023-06-22T15:33:56;21.10;;;4.57;;
140;SDS011;65;48.778;9.160;2023-06-22T15:36:42;19.20;;;4.63;;
140;SDS011;65;48.778;9.160;2023-06-22T15:39:28;17.30;;;4.07;;
140;SDS011;65;48.778;9.160;2023-06-22T15:42:14;16.60;;;4.13;;
140;SDS011;65;48.778;9.160;2023-06-22T15:45:00;17.15;;;4.18;;
140;SDS011;65;48.778;9.160;2023-06-22T15:47:46;12.68;;;3.58;;
140;SDS011;65;48.778;9.160;2023-06-22T15:50:32;16.17;;;4.68;;
140;SDS011;65;48.778;9.160;2023-06-22T15:53:18;14.30;;;4.28;;
140;SDS011;65;48.778;9.160;2023-06-22T15:56:04;16.33;;;4.03;;
140;SDS011;65;48.778;9.160;2023-06-22T15:58:50;28.33;;;4.68;;
140;SDS011;65;48.778;9.160;2023-06-22T16:01:36;21.85;;;5.35;;
140;SDS011;65;48.778;9.160;2023-06-22T16:07:55;23.55;;;5.00;;
140;SDS011;65;48.778;9.160;2023-06-22T16:10:42;20.10;;;4.95;;
140;SDS011;65;48.778;9.160;2023-06-22T16:13:27;17.02;;;4.80;;
140;SDS011;65;48.778;9.160;2023-06-22T16:16:13;19.23;;;4.10;;
140;SDS011;65;48.778;9.160;2023-06-22T16:19:01;17.25;;;3.97;;
140;SDS011;65;48.778;9.160;2023-06-22T16:21:47;17.30;;;4.40;;
140;SDS011;65;48.778;9.160;2023-06-22T16:24:33;17.60;;;4.10;;
140;SDS011;65;48.778;9.160;2023-06-22T16:27:19;17.75;;;4.15;;
140;SDS011;65;48.778;9.160;2023-06-22T16:30:06;15.75;;;4.25;;
140;SDS011;65;48.778;9.160;2023-06-22T16:32:53;14.20;;;4.05;;
140;SDS011;65;48.778;9.160;2023-06-22T16:35:42;15.05;;;4.13;;
140;SDS011;65;48.778;9.160;2023-06-22T16:38:29;21.15;;;5.47;;
140;SDS011;65;48.778;9.160;2023-06-22T16:41:37;15.18;;;5.25;;
140;SDS011;65;48.778;9.160;2023-06-22T16:44:30;14.80;;;4.63;;
140;SDS011;65;48.778;9.160;2023-06-22T16:47:16;20.77;;;4.40;;
140;SDS011;65;48.778;9.160;2023-06-22T16:50:02;11.10;;;4.05;;
140;SDS011;65;48.778;9.160;2023-06-22T16:52:48;17.67;;;4.50;;
140;SDS011;65;48.778;9.160;2023-06-22T16:55:34;19.38;;;5.85;;
140;SDS011;65;48.778;9.160;2023-06-22T16:58:22;16.38;;;4.45;;
140;SDS011;65;48.778;9.160;2023-06-22T17:01:09;16.30;;;4.15;;
140;SDS011;65;48.778;9.160;2023-06-22T17:04:00;16.65;;;4.40;;
140;SDS011;65;48.778;9.160;2023-06-22T17:06:54;12.30;;;3.90;;
140;SDS011;65;48.778;9.160;2023-06-22T17:09:45;14.25;;;4.63;;
140;SDS011;65;48.778;9.160;2023-06-22T17:12:32;14.57;;;4.40;;
140;SDS011;65;48.778;9.160;2023-06-22T17:15:18;18.70;;;4.43;;
140;SDS011;65;48.778;9.160;2023-06-22T17:18:06;17.25;;;4.68;;
140;SDS011;65;48.778;9.160;2023-06-22T17:20:52;12.60;;;4.22;;
140;SDS011;65;48.778;9.160;2023-06-22T17:23:38;15.90;;;4.30;;
140;SDS011;65;48.778;9.160;2023-06-22T17:26:24;15.95;;;4.80;;
140;SDS011;65;48.778;9.160;2023-06-22T17:29:10;17.33;;;4.47;;
140;SDS011;65;48.778;9.160;2023-06-22T17:31:56;13.75;;;4.35;;
140;SDS011;65;48.778;9.160;2023-06-22T17:34:42;14.38;;;3.95;;
140;SDS011;65;48.778;9.160;2023-06-22T17:37:32;15.93;;;4.35;;
140;SDS011;65;48.778;9.160;2023-06-22T17:40:20;17.10;;;4.00;;
140;SDS011;65;48.778;9.160;2023-06-22T17:43:07;20.48;;;3.97;;
140;SDS011;65;48.778;9.160;2023-06-22T17:45:53;15.43;;;4.25;;
140;SDS011;65;48.778;9.160;2023-06-22T17:48:44;14.50;;;3.83;;
140;SDS011;65;48.778;9.160;2023-06-22T17:51:30;15.00;;;4.07;;
140;SDS011;65;48.778;9.160;2023-06-22T17:54:16;15.07;;;4.32;;
140;SDS011;65;48.778;9.160;2023-06-22T17:57:02;21.02;;;3.47;;
140;SDS011;65;48.778;9.160;2023-06-22T17:59:58;12.18;;;3.72;;
140;SDS011;65;48.778;9.160;2023-06-22T18:02:44;12.52;;;3.85;;